createdAt,value
2018-02-07T11:54:54.060Z,101.25
2018-02-07T11:56:02.966Z,106.88
2018-02-07T11:57:05.597Z,106.88
2018-02-07T12:00:13.062Z,106.88
2018-02-07T12:02:42.602Z,101.25
2018-02-07T12:03:42.593Z,101.25
2018-02-07T12:05:36.037Z,101.25
2018-02-07T12:06:35.977Z,101.25
2018-02-07T12:08:29.358Z,101.25
2018-02-07T12:09:29.366Z,106.88
2018-02-07T12:11:22.311Z,112.50
2018-02-07T12:12:22.247Z,112.50
2018-02-07T12:14:15.416Z,112.50
2018-02-07T12:15:15.404Z,106.88
2018-02-07T12:17:08.847Z,106.88
2018-02-07T12:18:08.868Z,101.25
2018-02-07T12:20:02.154Z,101.25
2018-02-07T12:21:02.155Z,101.25
2018-02-07T12:22:55.572Z,95.63
2018-02-07T12:23:55.526Z,101.25
2018-02-07T12:25:48.400Z,106.88
2018-02-07T12:26:48.386Z,106.88
2018-02-07T12:28:41.320Z,90.00
2018-02-07T12:29:41.261Z,84.38
2018-02-07T12:31:34.638Z,78.75
2018-02-07T12:32:34.631Z,78.75
2018-02-07T12:34:27.566Z,84.38
2018-02-07T12:35:27.501Z,84.38
2018-02-07T12:37:20.386Z,84.38
2018-02-07T12:38:20.392Z,84.38
2018-02-07T12:41:14.054Z,84.38
2018-02-07T12:43:06.941Z,84.38
2018-02-07T12:44:06.944Z,78.75
2018-02-07T12:46:00.343Z,78.75
2018-02-07T12:47:00.337Z,78.75
2018-02-07T12:48:53.680Z,78.75
2018-02-07T12:49:53.695Z,78.75
2018-02-07T12:51:46.843Z,78.75
2018-02-07T12:52:46.789Z,78.75
2018-02-07T12:54:39.953Z,78.75
2018-02-07T12:55:39.948Z,73.13
2018-02-07T12:57:33.666Z,73.13
2018-02-07T12:58:33.637Z,73.13
2018-02-07T13:00:26.494Z,73.13
2018-02-07T13:01:26.538Z,73.13
2018-02-07T13:03:19.917Z,73.13
2018-02-07T13:04:19.855Z,73.13
2018-02-07T13:06:12.798Z,73.13
2018-02-07T13:07:12.824Z,73.13
2018-02-07T13:09:06.742Z,73.13
2018-02-07T13:10:06.671Z,73.13
2018-02-07T13:12:00.039Z,73.13
2018-02-07T13:13:00.037Z,73.13
2018-02-07T13:14:54.488Z,73.13
2018-02-07T13:17:47.313Z,73.13
2018-02-07T13:18:47.284Z,73.13
2018-02-07T13:20:40.202Z,67.50
2018-02-07T13:21:40.152Z,67.50
2018-02-07T13:23:33.033Z,67.50
2018-02-07T13:24:33.021Z,67.50
2018-02-07T13:26:27.064Z,67.50
2018-02-07T13:27:26.866Z,67.50
2018-02-07T13:29:19.746Z,67.50
2018-02-07T13:30:19.732Z,67.50
2018-02-07T13:32:13.154Z,67.50
2018-02-07T13:33:13.105Z,67.50
2018-02-07T13:35:06.269Z,67.50
2018-02-07T13:36:06.261Z,67.50
2018-02-07T13:37:59.212Z,67.50
2018-02-07T13:38:59.164Z,67.50
2018-02-07T13:43:45.971Z,67.50
2018-02-07T13:44:46.096Z,67.50
2018-02-07T13:46:38.807Z,67.50
2018-02-07T13:47:38.795Z,67.50
2018-02-07T13:49:31.735Z,67.50
2018-02-07T13:50:31.693Z,67.50
2018-02-07T13:52:24.872Z,61.88
2018-02-07T13:53:24.875Z,61.88
2018-02-07T13:55:18.319Z,61.88
2018-02-07T13:59:04.079Z,61.88
2018-02-07T14:01:57.837Z,61.88
2018-02-07T14:04:51.100Z,61.88
2018-02-07T14:05:51.101Z,61.88
2018-02-07T14:07:44.022Z,61.88
2018-02-07T14:08:34.860Z,61.88
2018-02-07T14:09:34.886Z,61.88
